Time;durP1;ratioP1;P1;durP2;ratioP2;P2;SDS_P1;SDS_P2;PMS_P1;PMS_P2;Temp;Humidity;BMP_temperature;BMP_pressure;BME280_temperature;BME280_humidity;BME280_pressure;Samples;Min_cycle;Max_cycle;Signal;HPM_P1;HPM_P2
2022/05/13 00:00:06;;;;;;;10.95;2.22;;;11.10;99.90;;;;;;5031298;28;20069;-54
2022/05/13 00:02:32;;;;;;;9.68;2.15;;;11.10;99.90;;;;;;5013913;28;20105;-54
2022/05/13 00:04:58;;;;;;;9.52;2.10;;;11.10;99.90;;;;;;5032063;28;20056;-55
2022/05/13 00:07:23;;;;;;;9.68;1.90;;;11.00;99.90;;;;;;5031714;28;20060;-53
2022/05/13 00:09:59;;;;;;;9.10;2.10;;;11.00;99.90;;;;;;5031728;28;20121;-54
2022/05/13 00:12:26;;;;;;;11.43;2.28;;;11.00;99.90;;;;;;5031539;28;20026;-54
2022/05/13 00:14:53;;;;;;;14.18;2.88;;;11.00;99.90;;;;;;5030988;28;20030;-54
2022/05/13 00:17:20;;;;;;;7.85;1.95;;;10.90;99.90;;;;;;5031249;28;20037;-55
2022/05/13 00:19:46;;;;;;;9.90;2.30;;;11.00;99.90;;;;;;5035362;28;20022;-54
2022/05/13 00:22:12;;;;;;;12.45;2.30;;;10.90;99.90;;;;;;5035463;28;20067;-54
2022/05/13 00:24:38;;;;;;;7.65;2.13;;;10.90;99.90;;;;;;5034750;28;20033;-54
2022/05/13 00:27:05;;;;;;;10.68;2.45;;;10.90;99.90;;;;;;5035242;28;20025;-53
2022/05/13 00:29:30;;;;;;;9.85;2.30;;;10.80;99.90;;;;;;5035611;28;20044;-53
2022/05/13 00:31:56;;;;;;;11.27;3.10;;;10.80;99.90;;;;;;5035303;28;20030;-55
2022/05/13 00:34:22;;;;;;;12.52;2.75;;;10.80;99.90;;;;;;5035657;28;20029;-55
2022/05/13 00:36:47;;;;;;;15.15;2.72;;;10.80;99.90;;;;;;5034773;28;20049;-53
2022/05/13 00:39:14;;;;;;;8.68;1.75;;;10.70;99.90;;;;;;5034572;28;20033;-54
2022/05/13 00:41:40;;;;;;;13.90;2.22;;;10.70;99.90;;;;;;5034887;28;20036;-53
2022/05/13 00:44:05;;;;;;;8.02;2.72;;;10.60;99.90;;;;;;5033801;28;20382;-53
2022/05/13 00:46:31;;;;;;;13.32;2.40;;;10.60;99.90;;;;;;5034857;28;20029;-53
2022/05/13 00:49:01;;;;;;;8.98;1.90;;;10.50;99.90;;;;;;5035265;28;20232;-54
2022/05/13 00:51:31;;;;;;;14.02;2.72;;;10.50;99.90;;;;;;5035108;28;20087;-55
2022/05/13 00:53:57;;;;;;;15.20;2.92;;;10.50;99.90;;;;;;5034680;28;20053;-54
2022/05/13 00:56:24;;;;;;;7.10;2.03;;;10.50;99.90;;;;;;5035118;28;20042;-53
2022/05/13 00:58:53;;;;;;;11.02;2.33;;;10.50;99.90;;;;;;5034180;28;20056;-54
2022/05/13 01:01:19;;;;;;;9.00;2.03;;;10.40;99.90;;;;;;5033892;28;20497;-53
2022/05/13 01:03:48;;;;;;;8.30;1.95;;;10.40;99.90;;;;;;5034067;28;20026;-53
2022/05/13 01:06:18;;;;;;;13.18;2.25;;;10.40;99.90;;;;;;5034349;28;20075;-54
2022/05/13 01:08:46;;;;;;;9.38;2.20;;;10.30;99.90;;;;;;5034325;28;20029;-53
2022/05/13 01:11:15;;;;;;;10.73;2.53;;;10.20;99.90;;;;;;5034127;28;20080;-54
2022/05/13 01:13:44;;;;;;;14.30;2.30;;;10.20;99.90;;;;;;5033924;28;20528;-54
2022/05/13 01:16:09;;;;;;;9.15;2.17;;;10.20;99.90;;;;;;5033950;28;20072;-54
2022/05/13 01:18:38;;;;;;;13.15;2.70;;;10.20;99.90;;;;;;5034789;28;20478;-53
2022/05/13 01:21:06;;;;;;;10.55;2.15;;;10.20;99.90;;;;;;5034470;28;20148;-54
2022/05/13 01:23:42;;;;;;;15.65;2.45;;;10.20;99.90;;;;;;5034153;28;20052;-53
2022/05/13 01:26:29;;;;;;;14.80;2.67;;;10.20;99.90;;;;;;5034518;28;20064;-53
2022/05/13 01:28:56;;;;;;;11.32;2.42;;;10.10;99.90;;;;;;5033792;28;20072;-53
2022/05/13 01:31:26;;;;;;;8.65;2.10;;;10.10;99.90;;;;;;5034325;28;20025;-53
2022/05/13 01:33:53;;;;;;;15.70;2.88;;;10.10;99.90;;;;;;5033603;28;20033;-53
2022/05/13 01:36:21;;;;;;;10.27;2.28;;;10.10;99.90;;;;;;5033587;28;20653;-53
2022/05/13 01:38:47;;;;;;;10.70;2.50;;;10.10;99.90;;;;;;5033606;28;20101;-53
2022/05/13 01:41:14;;;;;;;10.00;2.38;;;10.10;99.90;;;;;;5033750;28;20072;-52
2022/05/13 01:43:42;;;;;;;16.55;3.25;;;10.20;99.90;;;;;;5033851;28;20031;-54
2022/05/13 01:46:08;;;;;;;9.80;2.47;;;10.10;99.90;;;;;;5033651;28;20021;-54
2022/05/13 01:48:35;;;;;;;13.00;2.30;;;10.00;99.90;;;;;;5032902;28;20507;-53
2022/05/13 01:51:01;;;;;;;12.07;3.03;;;9.90;99.90;;;;;;5033513;28;20151;-53
2022/05/13 01:53:27;;;;;;;11.40;2.80;;;9.90;99.90;;;;;;5033561;28;20506;-54
2022/05/13 01:55:52;;;;;;;12.88;2.75;;;9.80;99.90;;;;;;5033652;28;20032;-54
2022/05/13 01:58:22;;;;;;;10.38;2.63;;;9.80;99.90;;;;;;5033445;28;20021;-53
2022/05/13 02:00:50;;;;;;;14.75;2.53;;;9.80;99.90;;;;;;5033476;28;20026;-54
2022/05/13 02:06:01;;;;;;;9.88;2.70;;;9.70;99.90;;;;;;5033405;28;20036;-58
2022/05/13 02:08:27;;;;;;;10.05;2.63;;;9.70;99.90;;;;;;5033172;28;20028;-53
2022/05/13 02:10:53;;;;;;;18.40;3.05;;;9.60;99.90;;;;;;5033077;28;20025;-54
2022/05/13 02:13:19;;;;;;;12.57;3.10;;;9.70;99.90;;;;;;5033098;28;20025;-54
2022/05/13 02:15:45;;;;;;;12.70;2.75;;;9.60;99.90;;;;;;5032841;28;20022;-54
2022/05/13 02:18:11;;;;;;;18.10;3.35;;;9.60;99.90;;;;;;5032943;28;20367;-54
2022/05/13 02:20:38;;;;;;;12.70;2.83;;;9.60;99.90;;;;;;5032629;28;20406;-53
2022/05/13 02:23:04;;;;;;;11.68;3.13;;;9.80;99.90;;;;;;5033117;28;20036;-54
2022/05/13 02:25:30;;;;;;;11.93;3.00;;;9.80;99.90;;;;;;5032640;28;20033;-54
2022/05/13 02:28:00;;;;;;;12.10;2.72;;;9.70;99.90;;;;;;5033052;28;20041;-53
2022/05/13 02:30:27;;;;;;;13.68;2.80;;;9.70;99.90;;;;;;5032726;28;20696;-52
2022/05/13 02:32:53;;;;;;;13.75;3.50;;;9.70;99.90;;;;;;5032500;28;20371;-53
2022/05/13 02:35:19;;;;;;;10.32;3.40;;;9.70;99.90;;;;;;5032359;28;20045;-53
2022/05/13 02:37:46;;;;;;;14.60;3.58;;;9.70;99.90;;;;;;5032736;28;20022;-54
2022/05/13 02:40:12;;;;;;;16.60;3.63;;;9.70;99.90;;;;;;5030708;28;20067;-53
2022/05/13 02:42:38;;;;;;;12.77;3.15;;;9.70;99.90;;;;;;5032691;28;20040;-53
2022/05/13 02:45:06;;;;;;;19.60;3.83;;;9.70;99.90;;;;;;5032342;28;20148;-54
2022/05/13 02:47:32;;;;;;;22.10;4.25;;;9.60;99.90;;;;;;5032130;28;20095;-53
2022/05/13 02:52:41;;;;;;;17.05;3.50;;;9.70;99.90;;;;;;5032137;28;20117;-53
2022/05/13 02:55:08;;;;;;;17.88;3.65;;;9.70;99.90;;;;;;5032079;28;20478;-53
2022/05/13 02:57:33;;;;;;;14.05;3.22;;;9.70;99.90;;;;;;5031469;28;20634;-53
2022/05/13 02:59:59;;;;;;;14.90;3.03;;;9.70;99.90;;;;;;5031437;28;20028;-53
2022/05/13 03:02:25;;;;;;;16.33;3.75;;;9.70;99.90;;;;;;5031944;28;20095;-54
2022/05/13 03:04:51;;;;;;;14.40;3.60;;;9.70;99.90;;;;;;5032047;28;20025;-54
2022/05/13 03:07:17;;;;;;;14.70;4.05;;;9.70;99.90;;;;;;5032391;28;20505;-52
2022/05/13 03:09:42;;;;;;;18.73;3.88;;;9.70;99.90;;;;;;5031560;28;20030;-53
2022/05/13 03:12:09;;;;;;;15.30;3.70;;;9.70;99.90;;;;;;5032009;28;20029;-53
2022/05/13 03:14:34;;;;;;;20.15;4.18;;;9.70;99.90;;;;;;5031193;28;20267;-53
2022/05/13 03:17:00;;;;;;;15.68;3.75;;;9.70;99.90;;;;;;5031110;28;20108;-53
2022/05/13 03:19:25;;;;;;;19.00;3.90;;;9.70;99.90;;;;;;5030833;28;20025;-53
2022/05/13 03:21:51;;;;;;;23.60;4.18;;;9.80;99.90;;;;;;5031834;28;20108;-54
2022/05/13 03:24:16;;;;;;;15.48;3.67;;;9.80;99.90;;;;;;5031076;28;20030;-53
2022/05/13 03:26:42;;;;;;;17.30;3.97;;;9.90;99.90;;;;;;5030776;28;20064;-53
2022/05/13 03:29:08;;;;;;;14.32;3.72;;;9.90;99.90;;;;;;5031095;28;20033;-53
2022/05/13 03:31:36;;;;;;;15.68;3.17;;;10.00;99.90;;;;;;5031189;28;20061;-55
2022/05/13 03:34:02;;;;;;;15.57;4.13;;;10.00;99.90;;;;;;5031203;28;20060;-52
2022/05/13 03:36:27;;;;;;;24.02;4.03;;;10.00;99.90;;;;;;5031217;28;20069;-54
2022/05/13 03:38:53;;;;;;;17.27;3.75;;;9.90;99.90;;;;;;5030982;28;20105;-53
2022/05/13 03:41:19;;;;;;;18.23;4.80;;;9.90;99.90;;;;;;5031213;28;20033;-54
2022/05/13 03:43:44;;;;;;;17.10;4.45;;;9.80;99.90;;;;;;5031405;28;20490;-53
2022/05/13 03:46:10;;;;;;;19.35;4.32;;;9.80;99.90;;;;;;5031475;28;20028;-54
2022/05/13 03:48:36;;;;;;;22.20;4.53;;;9.80;99.90;;;;;;5031759;28;20033;-54
2022/05/13 03:51:01;;;;;;;13.18;4.30;;;9.80;99.90;;;;;;5031984;28;20037;-54
2022/05/13 03:53:27;;;;;;;15.90;4.30;;;9.80;99.90;;;;;;5035337;28;20036;-54
2022/05/13 03:55:53;;;;;;;18.80;4.40;;;9.80;99.90;;;;;;5035911;28;20509;-55
2022/05/13 03:58:19;;;;;;;20.00;4.10;;;9.80;99.90;;;;;;5035972;28;20032;-54
2022/05/13 04:00:45;;;;;;;18.27;4.30;;;9.70;99.90;;;;;;5035198;28;20064;-53
2022/05/13 04:03:11;;;;;;;20.17;4.60;;;9.70;99.90;;;;;;5035288;28;20033;-54
2022/05/13 04:11:05;;;;;;;17.95;4.63;;;9.60;99.90;;;;;;5035039;28;20056;-53
2022/05/13 04:16:15;;;;;;;17.17;4.35;;;9.70;99.90;;;;;;5034727;28;20048;-55
2022/05/13 04:18:47;;;;;;;16.80;5.00;;;9.70;99.90;;;;;;5034848;28;20442;-53
2022/05/13 04:21:16;;;;;;;24.92;4.93;;;9.70;99.90;;;;;;5034982;28;20032;-54
2022/05/13 04:23:45;;;;;;;21.75;5.28;;;9.70;99.90;;;;;;5034528;28;20036;-53
2022/05/13 04:26:12;;;;;;;19.40;4.93;;;9.70;99.90;;;;;;5034701;28;20506;-54
2022/05/13 04:28:38;;;;;;;24.60;5.88;;;9.80;99.90;;;;;;5034658;28;20474;-53
2022/05/13 04:31:05;;;;;;;18.20;5.22;;;9.70;99.90;;;;;;5034983;28;20026;-54
2022/05/13 04:33:31;;;;;;;12.15;4.72;;;9.80;99.90;;;;;;5034372;28;20029;-53
2022/05/13 04:35:56;;;;;;;21.13;5.43;;;9.70;99.90;;;;;;5033890;28;20061;-54
2022/05/13 04:38:22;;;;;;;23.65;5.72;;;9.80;99.90;;;;;;5034320;28;20021;-54
2022/05/13 04:40:47;;;;;;;23.42;6.18;;;9.80;99.90;;;;;;5034970;28;20495;-54
2022/05/13 04:43:13;;;;;;;25.83;6.13;;;9.80;99.90;;;;;;5034697;28;20030;-53
2022/05/13 04:45:40;;;;;;;20.73;6.20;;;9.90;99.90;;;;;;5034756;28;20029;-54
2022/05/13 04:48:16;;;;;;;21.25;6.43;;;9.90;99.90;;;;;;5034585;28;20033;-53
2022/05/13 04:50:57;;;;;;;25.52;6.15;;;9.90;99.90;;;;;;5034560;28;20017;-54
2022/05/13 04:53:29;;;;;;;21.73;6.05;;;9.90;99.90;;;;;;5034589;28;20036;-54
2022/05/13 04:55:55;;;;;;;16.10;5.95;;;10.00;99.90;;;;;;5034683;28;20108;-53
2022/05/13 04:58:22;;;;;;;28.33;6.85;;;10.10;99.90;;;;;;5034591;28;20151;-53
2022/05/13 05:00:49;;;;;;;24.08;6.97;;;10.10;99.90;;;;;;5034550;28;20478;-54
2022/05/13 05:03:17;;;;;;;20.45;6.07;;;10.10;99.90;;;;;;5034214;28;20025;-55
2022/05/13 05:05:43;;;;;;;24.45;6.90;;;10.10;99.90;;;;;;5034639;28;20125;-54
2022/05/13 05:08:10;;;;;;;18.08;5.72;;;10.20;99.90;;;;;;5034710;28;20025;-54
2022/05/13 05:10:36;;;;;;;19.52;6.63;;;10.20;99.90;;;;;;5034081;28;20439;-53
2022/05/13 05:13:02;;;;;;;20.30;6.07;;;10.30;99.90;;;;;;5032374;28;20396;-54
2022/05/13 05:15:28;;;;;;;22.27;5.97;;;10.30;99.90;;;;;;5034839;28;20036;-54
2022/05/13 05:17:53;;;;;;;23.83;6.18;;;10.30;99.90;;;;;;5034130;28;20033;-54
2022/05/13 05:20:20;;;;;;;20.60;6.95;;;10.30;99.90;;;;;;5031929;28;20099;-53
2022/05/13 05:22:47;;;;;;;22.95;5.88;;;10.40;99.90;;;;;;5033577;28;20451;-56
2022/05/13 05:25:15;;;;;;;27.35;6.70;;;10.40;99.90;;;;;;5034761;28;20028;-54
2022/05/13 05:27:41;;;;;;;30.75;6.70;;;10.50;99.90;;;;;;5033072;28;20075;-53
2022/05/13 05:30:08;;;;;;;22.48;6.38;;;10.60;99.90;;;;;;5031692;28;20056;-53
2022/05/13 05:32:35;;;;;;;24.33;6.07;;;10.60;99.90;;;;;;5032815;28;20039;-53
2022/05/13 05:35:01;;;;;;;20.45;6.10;;;10.60;99.90;;;;;;5033696;28;20124;-53
2022/05/13 05:37:27;;;;;;;25.17;6.25;;;10.60;99.90;;;;;;5032299;28;20689;-53
2022/05/13 05:39:52;;;;;;;21.85;6.03;;;10.60;99.90;;;;;;5032598;28;20108;-53
2022/05/13 05:42:18;;;;;;;26.38;6.63;;;10.60;99.90;;;;;;5032698;28;20025;-53
2022/05/13 05:44:43;;;;;;;19.60;6.38;;;10.80;99.90;;;;;;5032003;28;20029;-53
2022/05/13 05:47:09;;;;;;;24.58;5.85;;;10.80;99.90;;;;;;5032788;28;20026;-54
2022/05/13 05:49:35;;;;;;;17.65;5.35;;;10.80;99.90;;;;;;5032833;28;20029;-54
2022/05/13 05:52:00;;;;;;;18.73;6.38;;;10.80;99.90;;;;;;5032564;28;20029;-53
2022/05/13 05:57:13;;;;;;;21.17;5.97;;;11.00;99.90;;;;;;5032066;28;20036;-54
2022/05/13 05:59:39;;;;;;;21.73;6.55;;;11.10;99.90;;;;;;5029760;28;20029;-54
2022/05/13 06:02:06;;;;;;;26.33;6.28;;;11.10;99.90;;;;;;5028842;28;20036;-54
2022/05/13 06:04:32;;;;;;;20.73;5.75;;;11.10;99.90;;;;;;5025131;28;20079;-54
2022/05/13 06:06:58;;;;;;;24.15;6.00;;;11.40;99.90;;;;;;5026907;28;20029;-53
2022/05/13 06:09:24;;;;;;;21.02;5.45;;;11.50;99.90;;;;;;5029744;28;20056;-53
2022/05/13 06:11:49;;;;;;;16.60;5.53;;;11.60;99.90;;;;;;5026323;28;20061;-54
2022/05/13 06:14:15;;;;;;;16.30;5.63;;;11.70;99.90;;;;;;5030039;28;20108;-53
2022/05/13 06:16:41;;;;;;;21.45;5.63;;;11.80;99.90;;;;;;5008224;28;20100;-54
2022/05/13 06:19:07;;;;;;;22.90;5.63;;;12.00;99.90;;;;;;5009118;28;20036;-54
2022/05/13 06:21:36;;;;;;;22.10;5.75;;;12.10;99.90;;;;;;5006908;28;20025;-54
2022/05/13 06:24:02;;;;;;;16.42;5.00;;;12.40;99.90;;;;;;5018842;28;20037;-53
2022/05/13 06:26:28;;;;;;;17.05;4.57;;;12.60;99.90;;;;;;5021944;28;20107;-54
2022/05/13 06:28:54;;;;;;;19.90;5.65;;;12.60;99.90;;;;;;5022437;28;20044;-54
2022/05/13 06:31:20;;;;;;;16.85;4.78;;;12.60;99.90;;;;;;5009236;28;20034;-53
2022/05/13 06:33:47;;;;;;;15.13;4.78;;;12.60;99.90;;;;;;5012070;28;20211;-54
2022/05/13 06:36:13;;;;;;;18.02;4.00;;;13.00;99.90;;;;;;5013204;28;20127;-54
2022/05/13 06:38:39;;;;;;;10.50;3.60;;;13.20;99.90;;;;;;5013471;28;20041;-54
2022/05/13 06:41:05;;;;;;;19.17;4.20;;;13.10;99.90;;;;;;5020988;28;20036;-53
2022/05/13 06:43:31;;;;;;;13.32;4.18;;;13.00;99.90;;;;;;5020797;28;20049;-53
2022/05/13 06:45:57;;;;;;;14.05;4.18;;;13.10;99.90;;;;;;5014026;28;20087;-53
2022/05/13 06:48:25;;;;;;;12.32;3.67;;;13.20;99.90;;;;;;5018157;28;20072;-54
2022/05/13 06:50:51;;;;;;;12.90;3.67;;;13.20;99.90;;;;;;5026653;28;20040;-54
2022/05/13 06:53:18;;;;;;;16.90;3.88;;;13.40;99.90;;;;;;5020652;28;20037;-54
2022/05/13 06:55:44;;;;;;;10.57;3.47;;;13.60;99.90;;;;;;5022892;28;20038;-54
2022/05/13 06:58:11;;;;;;;15.65;3.53;;;13.90;99.90;;;;;;5015646;28;20087;-54
2022/05/13 07:00:37;;;;;;;14.02;3.70;;;14.30;99.90;;;;;;5015621;28;20034;-54
2022/05/13 07:03:04;;;;;;;12.25;3.40;;;14.90;99.90;;;;;;5015030;28;20159;-54
2022/05/13 07:05:30;;;;;;;13.48;3.38;;;15.30;99.90;;;;;;5017134;28;20060;-54
2022/05/13 07:07:56;;;;;;;10.82;3.10;;;15.90;99.90;;;;;;5011621;28;20026;-55
2022/05/13 07:10:22;;;;;;;13.40;3.00;;;16.20;99.90;;;;;;5017534;28;20029;-55
2022/05/13 07:12:48;;;;;;;9.77;2.35;;;16.30;99.90;;;;;;5020837;28;20102;-55
2022/05/13 07:15:18;;;;;;;12.52;3.00;;;16.10;99.90;;;;;;5015177;28;20060;-55
2022/05/13 07:17:43;;;;;;;11.27;2.45;;;16.00;99.90;;;;;;5018769;28;20552;-55
2022/05/13 07:20:11;;;;;;;13.02;3.33;;;15.90;99.90;;;;;;5017779;28;20025;-55
2022/05/13 07:22:36;;;;;;;10.65;2.92;;;15.80;99.90;;;;;;5016253;28;20032;-55
2022/05/13 07:25:03;;;;;;;10.43;2.78;;;15.90;99.90;;;;;;5022393;28;20025;-55
2022/05/13 07:27:29;;;;;;;9.00;2.35;;;16.20;99.90;;;;;;5020206;28;20021;-55
2022/05/13 07:29:55;;;;;;;11.45;2.90;;;16.40;99.90;;;;;;5016637;28;20047;-55
2022/05/13 07:32:20;;;;;;;11.75;2.72;;;16.80;99.90;;;;;;5019782;28;20364;-55
2022/05/13 07:34:46;;;;;;;13.25;2.80;;;16.70;99.90;;;;;;5016419;28;20502;-55
2022/05/13 07:37:13;;;;;;;11.65;2.60;;;17.20;99.90;;;;;;5020954;28;20057;-56
2022/05/13 07:42:22;;;;;;;10.82;2.58;;;17.10;99.90;;;;;;5020808;28;20095;-56
2022/05/13 07:44:48;;;;;;;9.90;2.25;;;17.50;99.90;;;;;;5014536;28;20542;-56
2022/05/13 07:47:16;;;;;;;7.18;1.88;;;17.80;99.90;;;;;;5017315;28;20533;-56
2022/05/13 07:49:45;;;;;;;12.32;2.30;;;18.50;99.90;;;;;;5019690;28;20812;-56
2022/05/13 07:52:10;;;;;;;11.15;2.50;;;19.10;99.90;;;;;;5024879;28;20037;-56
2022/05/13 07:54:36;;;;;;;11.25;2.13;;;19.00;99.90;;;;;;5018758;28;20021;-55
2022/05/13 07:57:03;;;;;;;10.50;2.60;;;19.00;99.90;;;;;;5021535;28;20099;-56
2022/05/13 07:59:31;;;;;;;12.05;2.45;;;19.20;99.90;;;;;;5020455;28;20179;-56
2022/05/13 08:01:56;;;;;;;6.97;1.90;;;18.80;99.90;;;;;;5017576;28;20026;-56
2022/05/13 08:04:22;;;;;;;11.70;2.30;;;18.80;99.90;;;;;;5022365;28;20028;-56
2022/05/13 08:06:48;;;;;;;10.45;2.03;;;18.90;99.90;;;;;;5025626;28;20421;-56
2022/05/13 08:09:13;;;;;;;6.47;1.98;;;19.80;99.90;;;;;;5019254;28;20123;-56
2022/05/13 08:11:39;;;;;;;8.00;2.10;;;20.30;99.90;;;;;;5016675;28;20060;-55
2022/05/13 08:14:05;;;;;;;9.65;2.15;;;18.70;99.90;;;;;;5013322;28;20060;-56
2022/05/13 08:16:33;;;;;;;9.30;2.00;;;18.60;99.90;;;;;;5016155;28;20025;-56
2022/05/13 08:18:59;;;;;;;14.13;1.90;;;19.20;99.90;;;;;;5015364;28;20017;-56
2022/05/13 08:21:25;;;;;;;13.48;2.20;;;18.90;99.90;;;;;;5018639;28;20101;-56
2022/05/13 08:23:51;;;;;;;7.78;1.92;;;18.90;99.90;;;;;;5013890;28;20025;-56
2022/05/13 08:26:17;;;;;;;9.73;1.80;;;19.50;99.90;;;;;;5019381;28;20033;-56
2022/05/13 08:28:43;;;;;;;13.23;2.28;;;20.00;99.40;;;;;;5019674;28;20041;-57
2022/05/13 08:31:10;;;;;;;8.90;2.15;;;20.90;98.10;;;;;;5023226;28;20173;-56
2022/05/13 08:33:36;;;;;;;12.88;1.90;;;21.40;96.50;;;;;;5025842;28;20029;-57
2022/05/13 08:36:04;;;;;;;6.85;1.80;;;20.90;97.40;;;;;;5018788;28;20111;-56
2022/05/13 08:38:33;;;;;;;6.85;1.90;;;20.60;97.80;;;;;;5027537;28;20025;-56
2022/05/13 08:41:08;;;;;;;6.93;1.70;;;19.60;99.10;;;;;;5029106;28;20629;-56
2022/05/13 08:43:39;;;;;;;9.88;1.88;;;19.30;98.90;;;;;;5031383;28;20033;-56
2022/05/13 08:46:20;;;;;;;6.93;1.77;;;19.80;98.20;;;;;;5015832;28;20025;-56
2022/05/13 08:48:58;;;;;;;8.93;2.10;;;20.20;96.60;;;;;;5011903;28;20029;-56
2022/05/13 08:51:36;;;;;;;7.07;1.70;;;20.50;95.70;;;;;;5024891;28;20029;-56
2022/05/13 08:54:15;;;;;;;7.10;1.50;;;19.90;96.50;;;;;;5019980;28;20068;-57
2022/05/13 08:56:45;;;;;;;6.47;1.80;;;19.60;96.60;;;;;;5019852;28;20521;-57
2022/05/13 08:59:25;;;;;;;7.47;1.80;;;19.50;97.00;;;;;;5026951;28;20055;-56
2022/05/13 09:02:37;;;;;;;7.13;1.20;;;19.10;96.90;;;;;;5023616;28;20022;-56
2022/05/13 09:05:10;;;;;;;6.20;1.40;;;19.10;96.80;;;;;;5036933;28;20036;-56
2022/05/13 09:07:37;;;;;;;9.18;2.00;;;18.60;97.50;;;;;;5024246;28;20582;-56
2022/05/13 09:10:06;;;;;;;4.95;1.45;;;18.20;98.90;;;;;;5015725;28;20517;-56
2022/05/13 09:12:58;;;;;;;6.75;1.52;;;18.10;98.70;;;;;;5021162;28;20136;-56
2022/05/13 09:15:36;;;;;;;7.93;1.77;;;18.40;98.60;;;;;;5021290;28;20029;-57
2022/05/13 09:18:14;;;;;;;7.95;1.80;;;19.00;97.80;;;;;;5024133;28;20037;-57
2022/05/13 09:21:02;;;;;;;7.72;1.67;;;19.70;96.40;;;;;;5022683;28;20424;-55
2022/05/13 09:23:28;;;;;;;10.15;3.00;;;19.80;96.30;;;;;;5022210;28;20036;-55
2022/05/13 09:26:13;;;;;;;12.30;2.70;;;18.50;97.90;;;;;;5030649;28;20140;-55
2022/05/13 09:29:03;;;;;;;5.53;1.92;;;18.00;99.30;;;;;;5015033;28;20701;-55
2022/05/13 09:31:32;;;;;;;8.73;2.40;;;18.00;99.50;;;;;;5017716;28;20034;-55
2022/05/13 09:33:57;;;;;;;9.05;1.63;;;17.90;99.70;;;;;;5024577;28;20517;-56
2022/05/13 09:36:23;;;;;;;6.35;2.15;;;18.80;98.70;;;;;;5022930;28;20049;-55
2022/05/13 09:38:55;;;;;;;7.60;2.03;;;19.90;96.60;;;;;;5022514;28;20018;-55
2022/05/13 09:41:33;;;;;;;11.68;2.47;;;20.50;95.60;;;;;;5026839;28;20795;-55
2022/05/13 09:44:22;;;;;;;7.22;2.05;;;19.60;96.10;;;;;;5016082;28;20064;-55
2022/05/13 09:47:07;;;;;;;10.65;2.05;;;18.80;98.00;;;;;;5019088;28;20105;-55
2022/05/13 09:49:36;;;;;;;6.32;1.88;;;18.70;98.70;;;;;;5013943;28;20029;-55
2022/05/13 09:52:18;;;;;;;7.65;1.90;;;19.30;97.40;;;;;;5019955;28;20028;-55
2022/05/13 09:54:47;;;;;;;9.50;2.17;;;19.90;97.60;;;;;;5020855;28;20026;-55
2022/05/13 09:57:21;;;;;;;11.38;2.20;;;20.60;95.10;;;;;;5022450;28;20479;-55
2022/05/13 09:59:58;;;;;;;8.35;2.20;;;20.10;95.80;;;;;;5011464;28;20052;-55
2022/05/13 10:02:38;;;;;;;12.88;1.92;;;19.80;95.80;;;;;;5020732;28;20014;-55
2022/05/13 10:05:22;;;;;;;5.50;2.00;;;19.30;96.70;;;;;;5016797;28;20059;-55
2022/05/13 10:07:54;;;;;;;7.97;2.28;;;18.70;98.30;;;;;;5007726;28;20477;-55
2022/05/13 10:16:04;;;;;;;8.48;1.75;;;18.10;99.70;;;;;;5014184;28;20648;-54
2022/05/13 10:18:32;;;;;;;11.02;2.25;;;18.20;99.80;;;;;;5015203;28;20536;-55
2022/05/13 10:21:01;;;;;;;12.82;2.17;;;18.00;99.60;;;;;;5017469;28;20037;-54
2022/05/13 10:23:36;;;;;;;12.07;2.28;;;17.90;99.90;;;;;;5015350;28;20025;-57
2022/05/13 10:26:06;;;;;;;12.27;2.50;;;18.20;99.70;;;;;;5020250;28;20028;-55
2022/05/13 10:28:39;;;;;;;8.88;1.80;;;18.60;99.20;;;;;;5019428;28;20156;-54
2022/05/13 10:31:17;;;;;;;11.68;1.95;;;18.70;98.20;;;;;;5023219;28;20152;-54
2022/05/13 10:33:55;;;;;;;4.68;1.15;;;18.70;98.20;;;;;;5020751;28;20569;-54
2022/05/13 10:36:34;;;;;;;7.38;2.00;;;18.50;97.20;;;;;;5022572;28;20095;-55
2022/05/13 10:39:22;;;;;;;6.22;1.55;;;18.00;97.60;;;;;;5024351;28;20071;-54
2022/05/13 10:41:59;;;;;;;9.90;1.90;;;17.70;99.00;;;;;;5022935;28;20022;-55
2022/05/13 10:44:46;;;;;;;15.18;2.00;;;17.70;99.90;;;;;;5021114;28;20039;-55
2022/05/13 10:47:25;;;;;;;15.90;2.10;;;18.10;99.90;;;;;;5017746;28;20029;-56
2022/05/13 10:49:50;;;;;;;7.75;1.90;;;18.60;99.10;;;;;;5020344;28;20036;-56
2022/05/13 10:52:45;;;;;;;8.60;2.08;;;19.40;98.10;;;;;;5022420;28;20036;-55
2022/05/13 10:55:33;;;;;;;11.55;1.70;;;20.00;95.30;;;;;;5017379;28;20470;-55
2022/05/13 10:58:34;;;;;;;10.57;1.95;;;20.10;96.00;;;;;;5021534;28;20033;-55
2022/05/13 11:01:15;;;;;;;10.05;1.45;;;20.10;95.70;;;;;;5029573;28;20110;-55
2022/05/13 11:03:49;;;;;;;9.85;1.92;;;20.10;94.80;;;;;;5020814;28;20030;-55
2022/05/13 11:06:23;;;;;;;7.53;1.67;;;20.00;95.20;;;;;;5023402;28;20059;-55
2022/05/13 11:09:00;;;;;;;10.32;1.63;;;19.80;95.70;;;;;;5018810;28;20112;-55
2022/05/13 11:11:39;;;;;;;12.02;2.00;;;18.70;97.10;;;;;;5011305;28;20608;-54
2022/05/13 11:14:33;;;;;;;5.35;1.45;;;18.40;98.20;;;;;;5015165;28;20029;-54
2022/05/13 11:17:04;;;;;;;6.20;1.40;;;18.50;98.70;;;;;;5017478;28;20064;-55
2022/05/13 11:19:53;;;;;;;4.20;1.15;;;19.30;97.80;;;;;;5017418;28;20049;-55
2022/05/13 11:22:32;;;;;;;9.32;1.70;;;19.40;95.80;;;;;;5021992;28;20040;-55
2022/05/13 11:28:24;;;;;;;5.15;1.40;;;18.80;96.80;;;;;;5015486;28;20137;-55
2022/05/13 11:31:14;;;;;;;5.85;1.30;;;19.20;96.90;;;;;;5020143;28;20069;-55
2022/05/13 11:33:54;;;;;;;11.02;1.77;;;19.40;96.20;;;;;;5018827;28;20080;-55
2022/05/13 11:36:29;;;;;;;4.05;1.23;;;19.20;96.70;;;;;;5015737;28;20088;-54
2022/05/13 11:39:12;;;;;;;6.82;1.70;;;19.10;96.70;;;;;;5012845;28;20075;-55
2022/05/13 11:42:00;;;;;;;8.77;2.05;;;18.90;97.10;;;;;;5017165;28;20021;-54
2022/05/13 11:44:48;;;;;;;7.60;1.67;;;19.10;97.20;;;;;;5022361;28;20486;-54
2022/05/13 11:47:35;;;;;;;8.77;1.90;;;19.00;96.70;;;;;;5017437;28;20047;-55
2022/05/13 11:50:01;;;;;;;7.28;1.42;;;19.10;96.80;;;;;;5021258;28;20124;-56
2022/05/13 11:52:28;;;;;;;6.97;1.77;;;19.40;96.90;;;;;;5022292;28;20149;-55
2022/05/13 11:55:37;;;;;;;9.75;2.25;;;19.10;96.40;;;;;;5016247;28;20048;-55
2022/05/13 11:58:03;;;;;;;8.90;2.13;;;19.10;97.20;;;;;;5016819;28;20099;-55
2022/05/13 12:00:33;;;;;;;8.95;1.77;;;19.60;96.10;;;;;;5016028;28;20045;-55
2022/05/13 12:03:07;;;;;;;7.55;2.50;;;20.70;94.20;;;;;;5020740;28;20056;-55
2022/05/13 12:05:54;;;;;;;12.60;2.40;;;20.90;93.80;;;;;;5016334;28;20040;-55
2022/05/13 12:08:23;;;;;;;12.23;2.00;;;21.20;93.80;;;;;;5018235;28;20482;-54
2022/05/13 12:11:23;;;;;;;6.25;1.48;;;21.30;92.60;;;;;;5020479;28;20021;-56
2022/05/13 12:13:56;;;;;;;9.57;2.03;;;20.90;92.60;;;;;;5018458;28;20033;-55
2022/05/13 12:16:21;;;;;;;7.38;1.52;;;20.40;93.90;;;;;;5018888;28;20114;-55
2022/05/13 12:19:22;;;;;;;5.65;1.40;;;19.90;93.70;;;;;;5018694;28;20503;-56
2022/05/13 12:21:54;;;;;;;5.53;2.50;;;20.40;94.10;;;;;;5024037;28;20517;-55
2022/05/13 12:24:23;;;;;;;6.50;1.83;;;21.00;93.10;;;;;;5024671;28;20120;-55
2022/05/13 12:26:51;;;;;;;9.93;2.03;;;21.90;91.80;;;;;;5025620;28;20060;-55
2022/05/13 12:29:39;;;;;;;10.38;1.95;;;21.70;91.50;;;;;;5026574;28;20524;-55
2022/05/13 12:32:05;;;;;;;7.97;1.60;;;21.90;91.40;;;;;;5021173;28;20037;-55
2022/05/13 12:37:47;;;;;;;8.27;2.28;;;22.60;88.70;;;;;;5021511;28;20406;-54
2022/05/13 12:40:22;;;;;;;6.55;2.13;;;21.10;91.20;;;;;;5022376;28;20021;-55
2022/05/13 12:42:48;;;;;;;8.07;1.95;;;20.60;92.20;;;;;;5019402;28;20379;-55
2022/05/13 12:45:41;;;;;;;4.70;1.23;;;21.10;92.30;;;;;;5015511;28;20045;-54
2022/05/13 12:48:06;;;;;;;5.80;1.50;;;21.00;91.30;;;;;;5023635;28;20471;-55
2022/05/13 12:50:38;;;;;;;6.97;1.33;;;20.50;92.50;;;;;;5021375;28;20134;-55
2022/05/13 12:53:29;;;;;;;7.20;1.60;;;20.40;92.30;;;;;;5026065;28;20091;-55
2022/05/13 12:55:57;;;;;;;10.35;2.22;;;20.90;91.60;;;;;;5021638;28;20037;-55
2022/05/13 12:58:24;;;;;;;8.32;1.90;;;21.00;91.40;;;;;;5020532;28;20647;-55
2022/05/13 13:00:53;;;;;;;5.18;0.95;;;20.80;91.60;;;;;;5023691;28;20277;-55
2022/05/13 13:03:20;;;;;;;6.20;1.83;;;21.30;91.40;;;;;;5025789;28;20025;-55
2022/05/13 13:05:58;;;;;;;7.88;1.55;;;21.10;91.20;;;;;;5026369;28;20024;-55
2022/05/13 13:08:31;;;;;;;6.65;1.48;;;21.00;91.10;;;;;;5026540;28;20029;-55
2022/05/13 13:11:04;;;;;;;7.82;2.03;;;21.50;90.40;;;;;;5020355;28;20037;-56
2022/05/13 13:13:38;;;;;;;8.07;1.40;;;21.30;90.70;;;;;;5015906;28;20113;-56
2022/05/13 13:16:11;;;;;;;7.65;2.17;;;20.70;91.50;;;;;;5012032;28;20312;-56
2022/05/13 13:18:39;;;;;;;7.32;1.55;;;20.50;92.20;;;;;;5009166;28;20442;-56
2022/05/13 13:21:10;;;;;;;7.38;1.38;;;20.60;91.90;;;;;;5024625;28;20040;-56
2022/05/13 13:23:40;;;;;;;3.85;1.17;;;21.10;91.50;;;;;;5020797;28;20025;-56
2022/05/13 13:26:13;;;;;;;11.45;1.98;;;22.10;90.50;;;;;;5024444;28;20022;-57
2022/05/13 13:28:43;;;;;;;5.30;1.52;;;23.20;87.20;;;;;;5028342;28;20033;-57